createdAt,value
2023-04-08T00:00:21.744Z,24.20
2023-04-08T00:01:23.907Z,24.13
2023-04-08T00:02:26.166Z,25.38
2023-04-08T00:03:28.522Z,24.15
2023-04-08T00:04:31.818Z,22.77
2023-04-08T00:05:34.210Z,24.50
2023-04-08T00:06:37.273Z,22.65
2023-04-08T00:07:39.464Z,22.67
2023-04-08T00:08:41.802Z,24.13
2023-04-08T00:09:43.892Z,23.60
2023-04-08T00:10:46.253Z,23.58
2023-04-08T00:11:48.438Z,25.30
2023-04-08T00:12:50.599Z,22.30
2023-04-08T00:13:52.698Z,24.27
2023-04-08T00:14:54.894Z,25.83
2023-04-08T00:15:57.012Z,23.35
2023-04-08T00:16:59.198Z,23.27
2023-04-08T00:18:02.173Z,25.58
2023-04-08T00:19:04.358Z,23.90
2023-04-08T00:20:06.957Z,23.75
2023-04-08T00:21:09.255Z,24.48
2023-04-08T00:22:11.720Z,26.00
2023-04-08T00:23:13.882Z,24.48
2023-04-08T00:24:16.646Z,23.80
2023-04-08T00:25:18.752Z,25.60
2023-04-08T00:26:21.013Z,27.83
2023-04-08T00:27:25.238Z,25.10
2023-04-08T00:28:27.319Z,24.60
2023-04-08T00:29:29.637Z,26.55
2023-04-08T00:30:32.158Z,24.33
2023-04-08T00:31:34.291Z,26.17
2023-04-08T00:32:36.549Z,23.27
2023-04-08T00:33:38.671Z,24.25
2023-04-08T00:34:40.754Z,25.10
2023-04-08T00:35:42.900Z,25.42
2023-04-08T00:36:45.648Z,27.27
2023-04-08T00:37:48.150Z,26.85
2023-04-08T00:38:50.785Z,24.60
2023-04-08T00:39:54.226Z,24.83
2023-04-08T00:40:56.571Z,25.25
2023-04-08T00:41:58.801Z,23.77
2023-04-08T00:43:01.097Z,24.45
2023-04-08T00:44:03.619Z,26.63
2023-04-08T00:45:06.570Z,25.60
2023-04-08T00:46:09.585Z,25.33
2023-04-08T00:47:16.232Z,24.67
2023-04-08T00:48:18.665Z,23.73
2023-04-08T00:49:20.959Z,25.83
2023-04-08T00:50:23.103Z,23.95
2023-04-08T00:51:26.174Z,27.00
2023-04-08T00:52:28.356Z,24.40
2023-04-08T00:53:31.628Z,25.10
2023-04-08T00:54:34.205Z,25.05
2023-04-08T00:55:36.332Z,23.75
2023-04-08T00:56:38.619Z,24.17
2023-04-08T00:57:41.067Z,24.48
2023-04-08T00:58:43.216Z,24.48
2023-04-08T00:59:45.338Z,25.27
2023-04-08T01:00:55.753Z,25.02
2023-04-08T01:02:15.481Z,24.60
2023-04-08T01:03:45.363Z,24.42
2023-04-08T01:05:38.950Z,22.92
2023-04-08T01:07:04.009Z,24.05
2023-04-08T01:08:07.447Z,23.15
2023-04-08T01:09:10.767Z,23.25
2023-04-08T01:10:16.250Z,22.77
2023-04-08T01:11:18.971Z,26.02
2023-04-08T01:12:27.393Z,24.05
2023-04-08T01:13:31.740Z,24.13
2023-04-08T01:14:38.293Z,24.73
2023-04-08T01:15:42.722Z,23.77
2023-04-08T01:16:46.188Z,23.25
2023-04-08T01:17:51.138Z,23.20
2023-04-08T01:18:53.529Z,23.25
2023-04-08T01:19:57.257Z,24.30
2023-04-08T01:20:59.967Z,24.50
2023-04-08T01:22:08.356Z,24.67
2023-04-08T01:23:19.224Z,24.90
2023-04-08T01:24:28.655Z,23.40
2023-04-08T01:25:33.042Z,23.35
2023-04-08T01:26:35.997Z,22.95
2023-04-08T01:27:38.691Z,24.48
2023-04-08T01:28:41.069Z,24.50
2023-04-08T01:29:43.775Z,26.02
2023-04-08T01:30:47.430Z,27.90
2023-04-08T01:31:50.289Z,26.80
2023-04-08T01:32:54.729Z,22.92
2023-04-08T01:33:57.845Z,22.92
2023-04-08T01:35:01.328Z,23.52
2023-04-08T01:36:03.918Z,24.23
2023-04-08T01:37:06.479Z,26.20
2023-04-08T01:38:09.997Z,24.63
2023-04-08T01:39:12.211Z,26.55
2023-04-08T01:40:14.602Z,24.92
2023-04-08T01:41:17.727Z,24.27
2023-04-08T01:42:21.026Z,26.00
2023-04-08T01:43:24.795Z,23.80
2023-04-08T01:44:27.501Z,24.13
2023-04-08T01:45:30.424Z,25.23
2023-04-08T01:46:33.199Z,24.27
2023-04-08T01:47:35.892Z,25.50
2023-04-08T01:48:38.542Z,24.13
2023-04-08T01:49:41.094Z,25.50
2023-04-08T01:50:44.121Z,24.42
2023-04-08T01:51:47.310Z,24.25
2023-04-08T01:52:50.136Z,25.02
2023-04-08T01:53:52.293Z,25.02
2023-04-08T01:54:54.431Z,24.73
2023-04-08T01:56:01.409Z,25.13
2023-04-08T01:57:08.797Z,25.00
2023-04-08T01:58:12.534Z,23.48
2023-04-08T01:59:16.220Z,24.70
2023-04-08T02:00:25.870Z,26.55
2023-04-08T02:01:29.750Z,23.98
2023-04-08T02:02:33.114Z,23.75
2023-04-08T02:03:36.433Z,24.73
2023-04-08T02:04:38.739Z,25.42
2023-04-08T02:05:41.076Z,25.67
2023-04-08T02:06:43.333Z,25.35
2023-04-08T02:07:48.091Z,25.92
2023-04-08T02:08:50.463Z,24.98
2023-04-08T02:09:52.713Z,25.77
2023-04-08T02:10:54.863Z,26.15
2023-04-08T02:11:57.887Z,26.45
2023-04-08T02:13:00.955Z,27.23
2023-04-08T02:14:03.190Z,26.00
2023-04-08T02:15:05.918Z,24.48
2023-04-08T02:16:18.788Z,26.13
2023-04-08T02:17:23.541Z,26.00
2023-04-08T02:18:29.369Z,24.33
2023-04-08T02:19:57.204Z,24.90
2023-04-08T02:21:33.061Z,26.05
2023-04-08T02:22:58.794Z,22.98
2023-04-08T02:24:05.146Z,24.55
2023-04-08T02:25:09.533Z,24.98
2023-04-08T02:26:15.105Z,22.70
2023-04-08T02:27:17.848Z,24.10
2023-04-08T02:28:20.384Z,25.25
2023-04-08T02:29:22.734Z,25.27
2023-04-08T02:30:25.935Z,25.20
2023-04-08T02:31:28.328Z,24.58
2023-04-08T02:32:33.003Z,24.02
2023-04-08T02:33:37.132Z,24.88
2023-04-08T02:34:41.315Z,25.75
2023-04-08T02:35:45.289Z,24.58
2023-04-08T02:36:48.087Z,25.08
2023-04-08T02:37:50.490Z,25.67
2023-04-08T02:38:52.821Z,23.55
2023-04-08T02:39:55.006Z,24.38
2023-04-08T02:40:57.680Z,25.45
2023-04-08T02:41:59.833Z,25.05
2023-04-08T02:43:01.990Z,25.73
2023-04-08T02:44:04.123Z,26.63
2023-04-08T02:45:06.754Z,24.60
2023-04-08T02:46:11.110Z,25.27
2023-04-08T02:47:13.445Z,24.30
2023-04-08T02:48:15.806Z,23.58
2023-04-08T02:49:17.962Z,24.80
2023-04-08T02:50:20.095Z,27.40
2023-04-08T02:51:22.203Z,27.95
2023-04-08T02:52:24.297Z,25.65
2023-04-08T02:53:26.556Z,23.30
2023-04-08T02:54:28.636Z,24.40
2023-04-08T02:55:31.022Z,24.05
2023-04-08T02:56:33.255Z,23.17
2023-04-08T02:57:37.039Z,23.33
2023-04-08T02:58:39.205Z,25.20
2023-04-08T02:59:41.496Z,25.17
2023-04-08T03:00:43.703Z,25.23
2023-04-08T03:01:46.096Z,25.35
2023-04-08T03:02:48.435Z,23.85
2023-04-08T03:03:51.256Z,24.50
2023-04-08T03:04:53.445Z,25.98
2023-04-08T03:05:56.338Z,23.00
2023-04-08T03:06:58.539Z,26.75
2023-04-08T03:08:00.847Z,23.95
2023-04-08T03:09:03.016Z,24.65
2023-04-08T03:10:06.147Z,24.02
2023-04-08T03:11:09.053Z,22.25
2023-04-08T03:12:11.169Z,23.92
2023-04-08T03:13:13.295Z,24.38
2023-04-08T03:14:15.524Z,26.05
2023-04-08T03:15:17.746Z,23.27
2023-04-08T03:16:19.929Z,26.23
2023-04-08T03:17:22.137Z,25.60
2023-04-08T03:18:24.551Z,23.70
2023-04-08T03:19:26.639Z,22.75
2023-04-08T03:20:28.719Z,23.92
2023-04-08T03:21:31.888Z,24.83
2023-04-08T03:22:34.166Z,24.70
2023-04-08T03:23:36.287Z,24.55
2023-04-08T03:24:38.410Z,25.77
2023-04-08T03:25:40.658Z,26.05
2023-04-08T03:26:42.766Z,24.30
2023-04-08T03:27:45.007Z,24.83
2023-04-08T03:28:47.543Z,25.13
2023-04-08T03:29:50.065Z,26.17
2023-04-08T03:30:52.351Z,23.90
2023-04-08T03:31:54.539Z,23.38
2023-04-08T03:32:56.775Z,22.80
2023-04-08T03:33:59.280Z,25.25
2023-04-08T03:35:01.386Z,24.42
2023-04-08T03:36:03.757Z,23.55
2023-04-08T03:37:06.002Z,24.60
2023-04-08T03:38:08.569Z,24.73
2023-04-08T03:39:10.702Z,24.73
2023-04-08T03:40:13.157Z,23.85
2023-04-08T03:41:15.551Z,26.30
2023-04-08T03:42:18.190Z,24.17
2023-04-08T03:43:22.006Z,23.90
2023-04-08T03:44:24.158Z,24.90
2023-04-08T03:45:26.471Z,23.60
2023-04-08T03:46:28.676Z,23.13
2023-04-08T03:47:31.097Z,24.50
2023-04-08T03:48:33.293Z,24.00
2023-04-08T03:49:35.652Z,24.80
2023-04-08T03:50:37.767Z,25.48
2023-04-08T03:51:39.928Z,23.80
2023-04-08T03:52:42.051Z,23.83
2023-04-08T03:53:44.139Z,25.25
2023-04-08T03:54:46.248Z,23.33
2023-04-08T03:55:50.926Z,24.70
2023-04-08T03:56:53.090Z,24.50
2023-04-08T03:57:55.767Z,24.60
2023-04-08T03:58:57.907Z,29.05
2023-04-08T04:00:00.042Z,23.45
2023-04-08T04:01:02.205Z,25.73
2023-04-08T04:02:04.454Z,26.00
2023-04-08T04:03:06.779Z,25.15
2023-04-08T04:04:09.137Z,25.05
2023-04-08T04:05:11.474Z,23.40
2023-04-08T04:06:13.556Z,21.92
2023-04-08T04:07:15.769Z,22.60
2023-04-08T04:08:17.962Z,22.80
2023-04-08T04:09:20.328Z,23.27
2023-04-08T04:10:22.419Z,21.42
2023-04-08T04:11:24.542Z,24.23
2023-04-08T04:12:26.810Z,22.15
2023-04-08T04:13:28.927Z,23.23
2023-04-08T04:14:31.052Z,23.60
2023-04-08T04:15:33.496Z,23.05
2023-04-08T04:16:35.631Z,21.00
2023-04-08T04:17:37.767Z,21.13
2023-04-08T04:18:40.000Z,20.73
2023-04-08T04:19:42.331Z,19.40
2023-04-08T04:20:44.735Z,20.75
2023-04-08T04:21:46.889Z,21.55
2023-04-08T04:22:49.009Z,22.88
2023-04-08T04:23:51.098Z,21.42
2023-04-08T04:24:53.166Z,20.85
2023-04-08T04:25:55.308Z,20.10
2023-04-08T04:26:57.404Z,20.92
2023-04-08T04:27:59.588Z,21.52
2023-04-08T04:29:01.710Z,20.08
2023-04-08T04:30:04.626Z,19.95
2023-04-08T04:31:06.914Z,19.48
2023-04-08T04:32:09.060Z,18.80
2023-04-08T04:33:11.158Z,19.63
2023-04-08T04:34:13.327Z,19.60
2023-04-08T04:35:15.613Z,19.75
2023-04-08T04:36:17.744Z,19.95
2023-04-08T04:37:19.879Z,18.92
2023-04-08T04:38:22.034Z,20.25
2023-04-08T04:39:24.315Z,20.00
2023-04-08T04:40:27.101Z,19.00
2023-04-08T04:41:29.227Z,19.65
2023-04-08T04:42:31.807Z,20.77
2023-04-08T04:43:33.985Z,22.73
2023-04-08T04:44:36.371Z,21.25
2023-04-08T04:45:38.525Z,20.52
2023-04-08T04:46:40.856Z,20.23
2023-04-08T04:47:43.019Z,20.98
2023-04-08T04:48:45.503Z,21.60
2023-04-08T04:49:47.716Z,21.70
2023-04-08T04:51:01.238Z,19.95
2023-04-08T04:52:03.374Z,17.60
2023-04-08T04:53:05.559Z,18.27
2023-04-08T04:54:07.649Z,19.50
2023-04-08T04:55:10.355Z,19.92
2023-04-08T04:56:12.486Z,18.92
2023-04-08T04:57:14.604Z,18.75
2023-04-08T04:58:16.867Z,19.88
2023-04-08T04:59:19.006Z,21.00
2023-04-08T05:00:21.409Z,19.88
2023-04-08T05:01:23.721Z,20.27
2023-04-08T05:02:26.177Z,18.92
2023-04-08T05:03:28.458Z,18.88
2023-04-08T05:04:30.596Z,19.02
2023-04-08T05:05:32.713Z,18.63
2023-04-08T05:06:34.966Z,18.73
2023-04-08T05:07:37.674Z,18.35
2023-04-08T05:08:40.095Z,17.30
2023-04-08T05:09:42.207Z,18.02
2023-04-08T05:10:44.278Z,19.95
2023-04-08T05:11:46.407Z,19.48
2023-04-08T05:12:48.527Z,19.05
2023-04-08T05:13:50.703Z,19.30
2023-04-08T05:14:52.839Z,17.42
2023-04-08T05:15:54.996Z,17.73
2023-04-08T05:16:58.312Z,17.98
2023-04-08T05:18:00.718Z,19.35
2023-04-08T05:19:02.860Z,16.90
2023-04-08T05:20:23.700Z,18.33
2023-04-08T05:21:26.311Z,17.17
2023-04-08T05:22:28.512Z,17.88
2023-04-08T05:23:30.600Z,18.17
2023-04-08T05:24:32.729Z,18.08
2023-04-08T05:25:35.033Z,18.15
2023-04-08T05:26:37.836Z,17.90
2023-04-08T05:27:40.581Z,16.42
2023-04-08T05:28:42.675Z,17.38
2023-04-08T05:29:44.792Z,18.02
2023-04-08T05:30:51.517Z,18.67
2023-04-08T05:31:53.976Z,18.42
2023-04-08T05:32:59.386Z,18.40
2023-04-08T05:34:02.475Z,18.27
2023-04-08T05:35:05.028Z,17.35
2023-04-08T05:36:07.319Z,20.33
2023-04-08T05:37:09.434Z,18.02
2023-04-08T05:38:11.645Z,18.92
2023-04-08T05:39:13.765Z,18.20
2023-04-08T05:40:15.947Z,18.58
2023-04-08T05:41:18.114Z,19.00
2023-04-08T05:42:20.282Z,17.63
2023-04-08T05:43:22.425Z,19.15
2023-04-08T05:44:24.540Z,19.40
2023-04-08T05:45:28.329Z,19.52
2023-04-08T05:46:30.553Z,18.50
2023-04-08T05:47:33.215Z,18.58
2023-04-08T05:48:35.792Z,19.02
2023-04-08T05:49:37.918Z,18.25
2023-04-08T05:50:40.067Z,19.88
2023-04-08T05:51:42.231Z,20.80
2023-04-08T05:52:47.551Z,19.75
2023-04-08T05:53:49.650Z,20.35
2023-04-08T05:54:51.787Z,18.88
2023-04-08T05:55:53.973Z,20.38
2023-04-08T05:56:56.143Z,19.70
2023-04-08T05:57:58.239Z,19.15
2023-04-08T05:59:00.567Z,20.23
2023-04-08T06:00:04.126Z,21.02
2023-04-08T06:01:07.428Z,21.25
2023-04-08T06:02:10.387Z,19.15
2023-04-08T06:03:12.942Z,19.08
2023-04-08T06:04:17.634Z,19.05
2023-04-08T06:05:19.944Z,20.02
2023-04-08T06:06:23.114Z,18.48
2023-04-08T06:07:25.369Z,21.05
2023-04-08T06:08:27.522Z,21.60
2023-04-08T06:09:29.650Z,22.27
2023-04-08T06:10:31.736Z,19.95
2023-04-08T06:11:33.891Z,21.40
2023-04-08T06:12:37.540Z,21.48
2023-04-08T06:13:39.855Z,21.50
2023-04-08T06:14:41.973Z,18.85
2023-04-08T06:15:44.139Z,20.45
2023-04-08T06:16:46.427Z,21.52
2023-04-08T06:17:48.607Z,22.05
2023-04-08T06:18:50.908Z,19.60
2023-04-08T06:19:53.218Z,20.02
2023-04-08T06:20:55.311Z,18.85
2023-04-08T06:21:59.072Z,20.08
2023-04-08T06:23:01.198Z,18.30
2023-04-08T06:24:03.419Z,18.30
2023-04-08T06:25:05.923Z,20.17
2023-04-08T06:26:08.129Z,20.13
2023-04-08T06:27:10.421Z,21.98
2023-04-08T06:28:12.614Z,19.65
2023-04-08T06:29:14.731Z,19.63
2023-04-08T06:30:17.192Z,19.20
2023-04-08T06:31:19.506Z,19.60
2023-04-08T06:32:22.312Z,18.65
2023-04-08T06:33:24.467Z,19.30
2023-04-08T06:34:26.616Z,20.00
2023-04-08T06:35:28.707Z,21.15
2023-04-08T06:36:30.796Z,20.42
2023-04-08T06:37:34.237Z,21.30
2023-04-08T06:38:36.595Z,21.42
2023-04-08T06:39:38.779Z,19.90
2023-04-08T06:40:40.957Z,20.55
2023-04-08T06:41:43.605Z,21.58
2023-04-08T06:42:45.858Z,20.60
2023-04-08T06:43:47.980Z,21.45
2023-04-08T06:44:50.086Z,19.45
2023-04-08T06:45:53.309Z,19.45
2023-04-08T06:46:56.102Z,20.20
2023-04-08T06:47:58.424Z,19.05
2023-04-08T06:49:00.638Z,20.08
2023-04-08T06:50:02.897Z,22.27
2023-04-08T06:51:05.119Z,21.13
2023-04-08T06:52:08.147Z,21.63
2023-04-08T06:53:10.355Z,23.20
2023-04-08T06:54:12.499Z,21.70
2023-04-08T06:55:14.643Z,20.20
2023-04-08T06:56:16.966Z,20.25
2023-04-08T06:57:19.133Z,22.33
2023-04-08T06:58:21.251Z,21.10
2023-04-08T06:59:23.425Z,22.45
2023-04-08T07:00:25.538Z,23.48
2023-04-08T07:01:27.647Z,24.85
2023-04-08T07:02:29.980Z,22.98
2023-04-08T07:03:32.380Z,23.00
2023-04-08T07:04:34.765Z,23.05
2023-04-08T07:05:37.331Z,23.20
2023-04-08T07:06:39.429Z,21.35
2023-04-08T07:07:41.518Z,23.02
2023-04-08T07:08:44.268Z,21.95
2023-04-08T07:09:46.852Z,19.65
2023-04-08T07:10:49.104Z,19.95
2023-04-08T07:11:51.317Z,20.50
2023-04-08T07:12:54.177Z,21.83
2023-04-08T07:13:56.284Z,24.42
2023-04-08T07:14:58.388Z,21.80
2023-04-08T07:16:00.502Z,20.25
2023-04-08T07:17:02.603Z,20.65
2023-04-08T07:18:04.846Z,19.52
2023-04-08T07:19:07.020Z,20.73
2023-04-08T07:20:09.582Z,19.27
2023-04-08T07:21:11.740Z,20.95
2023-04-08T07:22:13.868Z,19.25
2023-04-08T07:23:16.016Z,21.83
2023-04-08T07:24:18.720Z,18.63
2023-04-08T07:25:21.000Z,20.10
2023-04-08T07:26:23.463Z,18.42
2023-04-08T07:27:25.798Z,18.77
2023-04-08T07:28:28.000Z,20.25
2023-04-08T07:29:30.180Z,21.95
2023-04-08T07:30:32.426Z,22.42
2023-04-08T07:31:35.001Z,22.10
2023-04-08T07:32:37.242Z,21.75
2023-04-08T07:33:39.384Z,22.45
2023-04-08T07:34:41.822Z,21.50
2023-04-08T07:35:43.983Z,20.67
2023-04-08T07:36:46.403Z,20.77
2023-04-08T07:37:49.001Z,21.13
2023-04-08T07:38:51.835Z,22.30
2023-04-08T07:39:54.108Z,20.75
2023-04-08T07:40:56.200Z,18.65
2023-04-08T07:41:58.277Z,20.83
2023-04-08T07:43:00.382Z,20.70
2023-04-08T07:44:02.697Z,18.65
2023-04-08T07:45:05.059Z,18.52
2023-04-08T07:46:07.511Z,19.20
2023-04-08T07:47:09.678Z,18.08
2023-04-08T07:48:11.935Z,19.50
2023-04-08T07:49:14.237Z,19.85
2023-04-08T07:50:16.305Z,19.25
2023-04-08T07:51:20.178Z,21.75
2023-04-08T07:52:23.035Z,20.33
2023-04-08T07:53:26.558Z,18.15
2023-04-08T07:54:28.743Z,18.77
2023-04-08T07:55:34.766Z,18.58
2023-04-08T07:56:40.275Z,19.15
2023-04-08T07:57:42.622Z,19.15
2023-04-08T07:58:44.943Z,20.27
2023-04-08T07:59:47.112Z,18.77
2023-04-08T08:00:49.226Z,20.35
2023-04-08T08:01:51.396Z,20.05
2023-04-08T08:02:53.667Z,19.40
2023-04-08T08:03:56.349Z,19.95
2023-04-08T08:04:58.721Z,18.65
2023-04-08T08:06:01.559Z,19.48
2023-04-08T08:07:03.660Z,20.02
2023-04-08T08:08:07.632Z,18.60
2023-04-08T08:09:09.747Z,19.52
2023-04-08T08:10:11.823Z,18.15
2023-04-08T08:11:14.021Z,18.90
2023-04-08T08:12:16.337Z,18.15
2023-04-08T08:13:21.266Z,17.88
2023-04-08T08:14:23.409Z,19.33
2023-04-08T08:15:25.835Z,19.00
2023-04-08T08:16:29.252Z,19.17
2023-04-08T08:18:53.249Z,17.23
2023-04-08T08:19:55.750Z,17.77
2023-04-08T08:20:57.942Z,17.75
2023-04-08T08:22:00.497Z,17.27
2023-04-08T08:23:02.599Z,18.40
2023-04-08T08:24:04.991Z,17.50
2023-04-08T08:25:07.887Z,16.70
2023-04-08T08:26:11.033Z,17.60
2023-04-08T08:27:13.226Z,17.10
2023-04-08T08:28:15.321Z,17.00
2023-04-08T08:29:17.409Z,16.40
2023-04-08T08:30:21.837Z,19.80
2023-04-08T08:31:23.990Z,17.65
2023-04-08T08:32:26.163Z,17.05
2023-04-08T08:33:28.311Z,17.73
2023-04-08T08:34:30.656Z,16.98
2023-04-08T08:35:32.794Z,17.85
2023-04-08T08:36:35.083Z,16.45
2023-04-08T08:37:37.255Z,18.98
2023-04-08T08:38:39.343Z,18.02
2023-04-08T08:39:41.469Z,20.27
2023-04-08T08:40:45.005Z,18.73
2023-04-08T08:41:47.218Z,18.83
2023-04-08T08:42:52.652Z,20.27
2023-04-08T08:43:54.926Z,19.63
2023-04-08T08:44:57.021Z,18.52
2023-04-08T08:45:59.608Z,20.52
2023-04-08T08:47:01.823Z,19.00
2023-04-08T08:48:04.510Z,19.95
2023-04-08T08:49:06.700Z,20.98
2023-04-08T08:50:09.058Z,19.35
2023-04-08T08:51:12.775Z,19.38
2023-04-08T08:52:20.626Z,20.63
2023-04-08T08:53:33.430Z,19.05
2023-04-08T08:54:38.153Z,19.27
2023-04-08T08:56:05.811Z,19.83
2023-04-08T08:57:02.681Z,17.10
2023-04-08T08:58:05.087Z,17.88
2023-04-08T08:59:07.160Z,18.33
2023-04-08T09:00:09.768Z,17.58
2023-04-08T09:01:41.498Z,18.20
2023-04-08T09:02:43.935Z,17.40
2023-04-08T09:03:46.498Z,20.17
2023-04-08T09:04:59.926Z,18.13
2023-04-08T09:06:03.512Z,17.95
2023-04-08T09:07:10.506Z,20.10
2023-04-08T09:08:31.350Z,17.02
2023-04-08T09:09:59.753Z,18.30
2023-04-08T09:11:18.828Z,17.08
2023-04-08T09:12:21.368Z,15.80
2023-04-08T09:13:24.814Z,18.38
2023-04-08T09:14:26.968Z,17.33
2023-04-08T09:15:29.115Z,17.77
2023-04-08T09:16:32.297Z,17.75
2023-04-08T09:17:39.160Z,18.50
2023-04-08T09:18:44.563Z,15.35
2023-04-08T09:20:12.457Z,18.23
2023-04-08T09:21:16.917Z,15.82
2023-04-08T09:22:19.055Z,18.83
2023-04-08T09:23:21.348Z,16.63
2023-04-08T09:24:30.790Z,16.75
2023-04-08T09:25:33.695Z,16.15
2023-04-08T09:26:37.578Z,15.55
2023-04-08T09:27:39.756Z,16.38
2023-04-08T09:28:43.334Z,15.95
2023-04-08T09:29:45.418Z,19.25
2023-04-08T09:30:47.958Z,18.83
2023-04-08T09:31:54.624Z,20.83
2023-04-08T09:32:58.098Z,18.88
2023-04-08T09:34:04.509Z,20.08
2023-04-08T09:35:07.043Z,18.15
2023-04-08T09:36:09.209Z,19.98
2023-04-08T09:37:11.469Z,18.23
2023-04-08T09:38:13.556Z,16.15
2023-04-08T09:39:15.766Z,18.35
2023-04-08T09:40:18.407Z,17.33
2023-04-08T09:41:23.522Z,16.48
2023-04-08T09:42:26.273Z,16.75
2023-04-08T09:43:28.376Z,16.35
2023-04-08T09:44:32.260Z,16.67
2023-04-08T09:45:36.713Z,16.42
2023-04-08T09:46:51.010Z,16.38
2023-04-08T09:48:01.099Z,16.77
2023-04-08T09:49:07.550Z,15.23
2023-04-08T09:50:10.013Z,16.10
2023-04-08T09:51:16.150Z,16.25
2023-04-08T09:52:21.498Z,17.27
2023-04-08T09:53:38.478Z,16.13
2023-04-08T09:54:53.584Z,14.40
2023-04-08T09:55:57.435Z,14.27
2023-04-08T09:57:07.024Z,16.35
2023-04-08T09:58:16.850Z,16.02
2023-04-08T09:59:21.837Z,15.63
2023-04-08T10:00:35.507Z,16.75
2023-04-08T10:01:40.160Z,15.07
2023-04-08T10:02:54.593Z,16.50
2023-04-08T10:03:59.968Z,15.63
2023-04-08T10:05:05.614Z,15.93
2023-04-08T10:06:10.420Z,15.65
2023-04-08T10:07:14.335Z,16.20
2023-04-08T10:08:16.648Z,18.17
2023-04-08T10:09:18.756Z,15.70
2023-04-08T10:10:21.242Z,16.55
2023-04-08T10:11:23.543Z,17.45
2023-04-08T10:12:25.751Z,17.85
2023-04-08T10:13:28.678Z,17.13
2023-04-08T10:14:31.584Z,18.25
2023-04-08T10:15:34.792Z,16.63
2023-04-08T10:16:36.999Z,17.20
2023-04-08T10:17:39.159Z,19.02
2023-04-08T10:18:43.098Z,19.48
2023-04-08T10:19:45.199Z,16.45
2023-04-08T10:20:49.085Z,15.82
2023-04-08T10:21:51.520Z,17.70
2023-04-08T10:22:53.687Z,17.60
2023-04-08T10:24:05.993Z,17.63
2023-04-08T10:25:17.147Z,17.65
2023-04-08T10:26:36.770Z,18.25
2023-04-08T10:27:42.392Z,16.83
2023-04-08T10:28:44.507Z,17.83
2023-04-08T10:29:46.743Z,17.55
2023-04-08T10:30:53.137Z,17.67
2023-04-08T10:31:55.713Z,18.77
2023-04-08T10:33:02.080Z,18.73
2023-04-08T10:34:20.465Z,18.67
2023-04-08T10:35:31.915Z,17.77
2023-04-08T10:36:34.074Z,18.10
2023-04-08T10:37:36.171Z,21.25
2023-04-08T10:38:39.427Z,18.08
2023-04-08T10:39:49.239Z,19.00
2023-04-08T10:40:51.507Z,17.60
2023-04-08T10:41:53.696Z,17.63
2023-04-08T10:42:56.605Z,16.92
2023-04-08T10:43:58.769Z,17.00
2023-04-08T10:45:01.977Z,16.83
2023-04-08T10:46:05.001Z,17.70
2023-04-08T10:47:07.541Z,17.85
2023-04-08T10:48:13.790Z,16.10
2023-04-08T10:49:17.444Z,17.88
2023-04-08T10:50:21.368Z,19.92
2023-04-08T10:51:23.802Z,17.73
2023-04-08T10:52:27.587Z,18.30
2023-04-08T10:53:35.547Z,19.38
2023-04-08T10:54:38.565Z,19.13
2023-04-08T10:55:42.090Z,18.92
2023-04-08T10:56:52.428Z,18.13
2023-04-08T10:57:55.854Z,18.25
2023-04-08T10:59:00.010Z,18.15
2023-04-08T11:00:02.614Z,18.23
2023-04-08T11:01:06.911Z,17.42
2023-04-08T11:02:14.727Z,19.70
2023-04-08T11:03:17.103Z,18.70
2023-04-08T11:04:19.763Z,16.95
2023-04-08T11:05:23.438Z,16.38
2023-04-08T11:06:25.800Z,17.48
2023-04-08T11:07:27.946Z,18.23
2023-04-08T11:08:32.453Z,15.60
2023-04-08T11:09:34.774Z,17.15
2023-04-08T11:10:38.951Z,16.73
2023-04-08T11:11:45.334Z,17.35
2023-04-08T11:12:47.965Z,17.40
2023-04-08T11:13:53.676Z,17.48
2023-04-08T11:14:56.302Z,15.23
2023-04-08T11:15:59.955Z,16.73
2023-04-08T11:17:05.840Z,18.73
2023-04-08T11:18:09.308Z,18.73
2023-04-08T11:19:13.772Z,18.88
2023-04-08T11:20:16.088Z,16.90
2023-04-08T11:21:18.433Z,18.17
2023-04-08T11:22:21.071Z,18.92
2023-04-08T11:23:25.314Z,18.13
2023-04-08T11:24:28.288Z,17.88
2023-04-08T11:25:30.557Z,17.95
2023-04-08T11:26:33.245Z,17.85
2023-04-08T11:27:36.023Z,17.75
2023-04-08T11:28:38.603Z,15.85
2023-04-08T11:29:40.828Z,16.92
2023-04-08T11:30:43.572Z,17.60
2023-04-08T11:31:47.294Z,18.35
2023-04-08T11:32:50.071Z,17.88
2023-04-08T11:33:54.368Z,18.13
2023-04-08T11:34:56.534Z,16.92
2023-04-08T11:36:02.126Z,16.90
2023-04-08T11:37:04.334Z,17.42
2023-04-08T11:38:06.475Z,17.92
2023-04-08T11:39:12.350Z,15.35
2023-04-08T11:40:20.741Z,15.10
2023-04-08T11:41:23.517Z,15.98
2023-04-08T11:42:32.056Z,15.75
2023-04-08T11:43:36.609Z,15.98
2023-04-08T11:44:38.732Z,15.95
2023-04-08T11:45:41.764Z,15.90
2023-04-08T11:46:55.504Z,17.77
2023-04-08T11:47:57.766Z,16.08
2023-04-08T11:49:01.259Z,17.80
2023-04-08T11:50:03.699Z,17.23
2023-04-08T11:51:10.356Z,16.50
2023-04-08T11:52:12.734Z,16.13
2023-04-08T11:53:18.425Z,15.98
2023-04-08T11:54:30.747Z,15.95
2023-04-08T11:55:33.247Z,15.13
2023-04-08T11:56:46.987Z,17.38
2023-04-08T11:57:49.342Z,15.77
2023-04-08T11:58:51.888Z,15.57
2023-04-08T11:59:53.966Z,18.67
2023-04-08T12:00:56.039Z,15.82
2023-04-08T12:01:59.072Z,15.85
2023-04-08T12:03:01.422Z,15.77
2023-04-08T12:04:03.941Z,15.93
2023-04-08T12:05:07.903Z,16.00
2023-04-08T12:06:10.203Z,16.00
2023-04-08T12:07:12.352Z,16.52
2023-04-08T12:08:14.497Z,15.77
2023-04-08T12:09:16.598Z,15.60
2023-04-08T12:10:18.819Z,16.05
2023-04-08T12:11:21.051Z,16.52
2023-04-08T12:12:23.261Z,16.27
2023-04-08T12:13:25.408Z,14.82
2023-04-08T12:14:28.556Z,19.20
2023-04-08T12:15:30.838Z,16.23
2023-04-08T12:16:33.077Z,15.15
2023-04-08T12:17:35.488Z,16.52
2023-04-08T12:18:38.237Z,16.75
2023-04-08T12:19:40.406Z,17.33
2023-04-08T12:20:42.541Z,15.23
2023-04-08T12:21:44.633Z,15.18
2023-04-08T12:22:46.943Z,14.75
2023-04-08T12:23:49.298Z,15.07
2023-04-08T12:24:51.629Z,14.60
2023-04-08T12:25:53.737Z,14.18
2023-04-08T12:26:56.599Z,15.15
2023-04-08T12:27:58.690Z,15.55
2023-04-08T12:29:00.859Z,13.93
2023-04-08T12:30:03.738Z,15.27
2023-04-08T12:31:05.987Z,14.52
2023-04-08T12:32:08.091Z,16.23
2023-04-08T12:33:10.342Z,15.00
2023-04-08T12:34:12.492Z,16.17
2023-04-08T12:35:15.189Z,15.63
2023-04-08T12:36:17.367Z,15.52
2023-04-08T12:37:20.804Z,15.75
2023-04-08T12:38:22.878Z,15.43
2023-04-08T12:39:25.184Z,14.95
2023-04-08T12:40:27.352Z,14.93
2023-04-08T12:41:29.480Z,13.77
2023-04-08T12:42:31.716Z,14.55
2023-04-08T12:43:34.593Z,13.50
2023-04-08T12:44:36.664Z,15.23
2023-04-08T12:45:38.729Z,14.20
2023-04-08T12:46:41.195Z,13.85
2023-04-08T12:47:43.357Z,14.15
2023-04-08T12:49:50.139Z,16.83
2023-04-08T12:50:52.300Z,15.10
2023-04-08T12:51:55.009Z,15.93
2023-04-08T12:52:57.148Z,13.45
2023-04-08T12:54:00.643Z,13.50
2023-04-08T12:55:03.050Z,14.65
2023-04-08T12:56:05.560Z,12.95
2023-04-08T12:57:07.869Z,14.50
2023-04-08T12:58:10.012Z,13.48
2023-04-08T12:59:12.178Z,14.15
2023-04-08T13:00:14.509Z,13.73
2023-04-08T13:01:16.668Z,13.75
2023-04-08T13:02:19.038Z,15.75
2023-04-08T13:03:21.634Z,15.40
2023-04-08T13:04:42.290Z,15.50
2023-04-08T13:05:44.873Z,14.15
2023-04-08T13:06:46.969Z,14.27
2023-04-08T13:07:49.052Z,13.45
2023-04-08T13:08:51.368Z,13.57
2023-04-08T13:09:53.652Z,12.98
2023-04-08T13:10:55.790Z,13.90
2023-04-08T13:11:58.515Z,15.30
2023-04-08T13:13:00.786Z,13.52
2023-04-08T13:14:03.163Z,14.63
2023-04-08T13:15:06.390Z,13.73
2023-04-08T13:16:09.675Z,13.07
2023-04-08T13:17:11.881Z,13.73
2023-04-08T13:18:14.359Z,14.05
2023-04-08T13:19:16.486Z,14.10
2023-04-08T13:20:18.648Z,14.90
2023-04-08T13:21:20.993Z,15.73
2023-04-08T13:22:23.099Z,13.25
2023-04-08T13:23:25.262Z,13.07
2023-04-08T13:24:27.511Z,13.75
2023-04-08T13:25:29.714Z,15.38
2023-04-08T13:26:31.909Z,13.40
2023-04-08T13:27:34.150Z,13.70
2023-04-08T13:28:49.825Z,12.10
2023-04-08T13:29:58.453Z,12.18
2023-04-08T13:31:00.626Z,12.95
2023-04-08T13:32:02.906Z,12.75
2023-04-08T13:33:05.089Z,13.20
2023-04-08T13:34:07.326Z,12.82
2023-04-08T13:35:09.886Z,11.00
2023-04-08T13:36:11.970Z,11.82
2023-04-08T13:37:14.133Z,14.40
2023-04-08T13:38:16.219Z,13.68
2023-04-08T13:39:18.334Z,12.45
2023-04-08T13:40:21.354Z,12.43
2023-04-08T13:41:23.574Z,15.43